createdAt,value
2022-12-25T00:02:18.578Z,95304.00
2022-12-25T00:04:45.585Z,95324.78
2022-12-25T00:07:12.556Z,95345.47
2022-12-25T00:09:39.299Z,95346.56
2022-12-25T00:12:08.456Z,95343.75
2022-12-25T00:14:35.140Z,95365.41
2022-12-25T00:17:01.750Z,95353.81
2022-12-25T00:19:28.520Z,95355.16
2022-12-25T00:21:55.345Z,95364.66
2022-12-25T00:24:22.183Z,95357.72
2022-12-25T00:26:48.873Z,95322.19
2022-12-25T00:29:15.542Z,95340.88
2022-12-25T00:31:42.413Z,95333.25
2022-12-25T00:34:09.346Z,95335.94
2022-12-25T00:36:41.362Z,95350.91
2022-12-25T00:39:08.497Z,95339.16
2022-12-25T00:41:53.597Z,95354.47
2022-12-25T00:44:20.720Z,95349.41
2022-12-25T00:46:47.543Z,95365.25
2022-12-25T00:49:14.525Z,95383.28
2022-12-25T00:51:41.786Z,95387.94
2022-12-25T00:54:09.036Z,95379.28
2022-12-25T00:56:36.304Z,95387.94
2022-12-25T00:59:03.659Z,95381.00
2022-12-25T01:01:30.785Z,95369.41
2022-12-25T01:03:58.162Z,95375.22
2022-12-25T01:06:25.520Z,95367.94
2022-12-25T01:09:11.277Z,95318.22
2022-12-25T01:11:38.042Z,95372.00
2022-12-25T01:14:04.715Z,95370.31
2022-12-25T01:16:31.899Z,95355.53
2022-12-25T01:18:58.793Z,95338.59
2022-12-25T01:21:25.480Z,95347.41
2022-12-25T01:23:53.391Z,95375.84
2022-12-25T01:26:24.503Z,95370.47
2022-12-25T01:28:51.801Z,95366.34
2022-12-25T01:31:21.735Z,95337.09
2022-12-25T01:33:49.296Z,95389.47
2022-12-25T01:36:24.912Z,95349.78
2022-12-25T01:38:53.289Z,95383.84
2022-12-25T01:41:22.500Z,95397.94
2022-12-25T01:43:58.141Z,95379.44
2022-12-25T01:46:24.992Z,95341.75
2022-12-25T01:48:53.181Z,95356.69
2022-12-25T01:51:48.852Z,95388.50
2022-12-25T01:54:25.569Z,95362.59
2022-12-25T01:56:55.443Z,95388.16
2022-12-25T01:59:25.870Z,95321.72
2022-12-25T02:01:53.270Z,95381.22
2022-12-25T02:04:39.028Z,95381.97
2022-12-25T02:07:05.753Z,95393.13
2022-12-25T02:09:33.403Z,95376.75
2022-12-25T02:12:01.094Z,95372.09
2022-12-25T02:14:32.746Z,95383.88
2022-12-25T02:17:07.812Z,95382.31
2022-12-25T02:20:12.023Z,95388.44
2022-12-25T02:23:14.146Z,95394.28
2022-12-25T02:25:56.141Z,95391.47
2022-12-25T02:28:45.625Z,95383.38
2022-12-25T02:31:19.126Z,95407.22
2022-12-25T02:34:05.268Z,95384.47
2022-12-25T02:36:40.798Z,95319.72
2022-12-25T02:39:37.703Z,95387.78
2022-12-25T02:42:10.441Z,95339.72
2022-12-25T02:45:00.881Z,95291.91
2022-12-25T02:47:47.258Z,95314.63
2022-12-25T02:50:51.496Z,95351.13
2022-12-25T02:53:37.603Z,95394.25
2022-12-25T02:56:23.068Z,95395.00
2022-12-25T02:59:09.389Z,95377.13
2022-12-25T03:01:55.964Z,95403.13
2022-12-25T03:04:44.426Z,95364.38
2022-12-25T03:07:17.384Z,95380.41
2022-12-25T03:10:15.614Z,95390.44
2022-12-25T03:12:45.335Z,95422.94
2022-12-25T03:15:39.523Z,95424.22
2022-12-25T03:18:14.665Z,95398.28
2022-12-25T03:21:00.521Z,95394.63
2022-12-25T03:23:51.779Z,95430.19
2022-12-25T03:26:37.618Z,95415.97
2022-12-25T03:29:04.482Z,95419.03
2022-12-25T03:31:37.520Z,95435.81
2022-12-25T03:34:49.188Z,95434.28
2022-12-25T03:38:07.392Z,95428.38
2022-12-25T03:41:11.914Z,95430.94
2022-12-25T03:44:13.839Z,95419.50
2022-12-25T03:47:05.828Z,95426.28
2022-12-25T03:50:11.942Z,95436.19
2022-12-25T03:52:58.936Z,95408.88
2022-12-25T03:55:45.166Z,95436.59
2022-12-25T03:58:38.972Z,95453.38
2022-12-25T04:01:24.790Z,95442.22
2022-12-25T04:04:10.866Z,95408.84
2022-12-25T04:06:56.241Z,95388.09
2022-12-25T04:09:41.757Z,95440.88
2022-12-25T04:12:26.965Z,95457.31
2022-12-25T04:15:11.988Z,95453.97
2022-12-25T04:17:57.455Z,95448.75
2022-12-25T04:20:43.004Z,95433.03
2022-12-25T04:23:28.241Z,95449.16
2022-12-25T04:26:16.610Z,95406.81
2022-12-25T04:29:01.904Z,95461.47
2022-12-25T04:31:47.624Z,95469.66
2022-12-25T04:34:33.027Z,95453.13
2022-12-25T04:36:59.662Z,95469.41
2022-12-25T04:39:26.288Z,95485.75
2022-12-25T04:41:56.090Z,95500.44
2022-12-25T04:44:23.239Z,95478.25
2022-12-25T04:46:50.081Z,95489.94
2022-12-25T04:49:16.791Z,95508.94
2022-12-25T04:51:43.631Z,95494.97
2022-12-25T04:54:10.449Z,95490.09
2022-12-25T04:56:43.345Z,95472.84
2022-12-25T04:59:12.267Z,95502.81
2022-12-25T05:01:39.323Z,95522.13
2022-12-25T05:04:06.219Z,95514.78
2022-12-25T05:06:33.394Z,95496.72
2022-12-25T05:09:00.115Z,95513.69
2022-12-25T05:11:27.613Z,95518.34
2022-12-25T05:13:54.406Z,95421.41
2022-12-25T05:16:21.372Z,95506.91
2022-12-25T05:18:52.433Z,95516.28
2022-12-25T05:21:19.782Z,95520.44
2022-12-25T05:23:50.393Z,95513.44
2022-12-25T05:26:23.669Z,95500.47
2022-12-25T05:28:51.197Z,95484.00
2022-12-25T05:31:19.331Z,95525.66
2022-12-25T05:33:46.075Z,95505.50
2022-12-25T05:36:13.386Z,95507.72
2022-12-25T05:38:40.333Z,95499.56
2022-12-25T05:41:08.445Z,95517.59
2022-12-25T05:43:35.101Z,95517.06
2022-12-25T05:46:10.100Z,95538.09
2022-12-25T05:48:37.818Z,95540.00
2022-12-25T05:51:10.143Z,95538.34
2022-12-25T05:53:37.580Z,95520.34
2022-12-25T05:56:07.049Z,95486.47
2022-12-25T05:58:35.163Z,95525.84
2022-12-25T06:01:02.565Z,95544.53
2022-12-25T06:03:29.557Z,95523.84
2022-12-25T06:05:56.244Z,95544.72
2022-12-25T06:08:23.329Z,95552.56
2022-12-25T06:10:50.046Z,95543.38
2022-12-25T06:13:16.741Z,95544.34
2022-12-25T06:15:43.437Z,95482.88
2022-12-25T06:18:10.119Z,95553.97
2022-12-25T06:20:40.567Z,95578.28
2022-12-25T06:23:07.518Z,95577.25
2022-12-25T06:25:34.299Z,95590.31
2022-12-25T06:28:01.085Z,95587.19
2022-12-25T06:30:27.897Z,95588.75
2022-12-25T06:32:54.612Z,95589.13
2022-12-25T06:35:21.422Z,95585.16
2022-12-25T06:37:48.222Z,95600.78
2022-12-25T06:40:14.951Z,95585.31
2022-12-25T06:42:42.022Z,95596.44
2022-12-25T06:45:12.515Z,95581.84
2022-12-25T06:47:39.386Z,95594.19
2022-12-25T06:50:07.151Z,95573.22
2022-12-25T06:52:33.959Z,95629.91
2022-12-25T06:55:00.639Z,95620.31
2022-12-25T06:57:27.407Z,95588.53
2022-12-25T06:59:55.589Z,95626.41
2022-12-25T07:02:24.639Z,95638.97
2022-12-25T07:04:52.919Z,95605.19
2022-12-25T07:07:23.741Z,95642.19
2022-12-25T07:09:50.417Z,95617.09
2022-12-25T07:12:20.504Z,95628.00
2022-12-25T07:14:50.090Z,95627.16
2022-12-25T07:17:18.231Z,95631.59
2022-12-25T07:19:46.820Z,95660.00
2022-12-25T07:22:14.918Z,95633.56
2022-12-25T07:24:41.705Z,95624.72
2022-12-25T07:27:08.567Z,95628.06
2022-12-25T07:29:35.440Z,95655.72
2022-12-25T07:32:02.323Z,95618.03
2022-12-25T07:34:29.446Z,95667.53
2022-12-25T07:36:56.491Z,95665.50
2022-12-25T07:39:23.988Z,95650.16
2022-12-25T07:41:51.351Z,95659.97
2022-12-25T07:44:18.372Z,95654.00
2022-12-25T07:46:45.492Z,95684.28
2022-12-25T07:49:12.722Z,95673.06
2022-12-25T07:51:39.595Z,95690.69
2022-12-25T07:54:06.769Z,95671.44
2022-12-25T07:56:33.767Z,95680.16
2022-12-25T07:59:00.686Z,95691.69
2022-12-25T08:01:28.517Z,95644.00
2022-12-25T08:04:01.363Z,95696.53
2022-12-25T08:06:33.927Z,95702.69
2022-12-25T08:09:09.219Z,95690.88
2022-12-25T08:11:36.525Z,95698.53
2022-12-25T08:14:09.138Z,95701.22
2022-12-25T08:16:36.428Z,95693.56
2022-12-25T08:19:03.275Z,95681.41
2022-12-25T08:21:30.076Z,95681.88
2022-12-25T08:23:57.071Z,95669.38
2022-12-25T08:26:24.537Z,95680.81
2022-12-25T08:28:51.479Z,95691.50
2022-12-25T08:31:27.561Z,95674.31
2022-12-25T08:33:57.698Z,95677.94
2022-12-25T08:36:24.921Z,95684.44
2022-12-25T08:38:54.591Z,95668.13
2022-12-25T08:41:25.903Z,95685.44
2022-12-25T08:43:53.196Z,95703.81
2022-12-25T08:46:20.435Z,95694.34
2022-12-25T08:48:48.602Z,95718.00
2022-12-25T08:51:19.273Z,95708.19
2022-12-25T08:53:48.036Z,95702.44
2022-12-25T08:56:15.930Z,95712.66
2022-12-25T08:58:43.499Z,95718.00
2022-12-25T09:01:10.851Z,95662.69
2022-12-25T09:03:38.060Z,95651.78
2022-12-25T09:06:10.241Z,95729.97
2022-12-25T09:08:42.411Z,95724.09
2022-12-25T09:11:20.491Z,95714.16
2022-12-25T09:13:51.161Z,95711.34
2022-12-25T09:16:21.227Z,95699.38
2022-12-25T09:18:48.771Z,95715.38
2022-12-25T09:21:17.218Z,95678.59
2022-12-25T09:23:43.960Z,95698.41
2022-12-25T09:26:14.161Z,95704.81
2022-12-25T09:28:45.352Z,95696.13
2022-12-25T09:31:18.224Z,95677.38
2022-12-25T09:33:45.027Z,95622.84
2022-12-25T09:36:11.678Z,95709.81
2022-12-25T09:38:38.602Z,95695.59
2022-12-25T09:41:20.914Z,95704.53
2022-12-25T09:43:57.677Z,95700.69
2022-12-25T09:46:34.750Z,95690.78
2022-12-25T09:49:12.437Z,95707.19
2022-12-25T09:51:40.943Z,95667.78
2022-12-25T09:54:19.044Z,95665.81
2022-12-25T09:56:45.951Z,95612.81
2022-12-25T09:59:24.746Z,95593.94
2022-12-25T10:01:51.416Z,95697.50
2022-12-25T10:04:24.277Z,95691.53
2022-12-25T10:07:18.430Z,95697.25
2022-12-25T10:10:31.915Z,95691.47
2022-12-25T10:13:23.214Z,95691.16
2022-12-25T10:16:08.323Z,95673.91
2022-12-25T10:19:04.401Z,95684.25
2022-12-25T10:21:31.956Z,95681.00
2022-12-25T10:23:58.716Z,95677.88
2022-12-25T10:26:26.899Z,95658.25
2022-12-25T10:29:02.415Z,95666.75
2022-12-25T10:31:34.400Z,95672.25
2022-12-25T10:34:01.879Z,95662.94
2022-12-25T10:36:30.853Z,95673.88
2022-12-25T10:38:57.882Z,95665.53
2022-12-25T10:41:42.607Z,95672.81
2022-12-25T10:44:20.647Z,95672.13
2022-12-25T10:46:52.813Z,95663.41
2022-12-25T10:49:20.913Z,95673.97
2022-12-25T10:51:47.708Z,95659.41
2022-12-25T10:54:25.655Z,95664.16
2022-12-25T10:57:01.358Z,95657.09
2022-12-25T10:59:30.761Z,95594.56
2022-12-25T11:02:13.367Z,95663.47
2022-12-25T11:04:40.326Z,95655.88
2022-12-25T11:07:19.146Z,95636.34
2022-12-25T11:09:52.041Z,95611.38
2022-12-25T11:12:21.295Z,95545.94
2022-12-25T11:15:03.089Z,95571.34
2022-12-25T11:17:29.998Z,95647.88
2022-12-25T11:19:59.087Z,95665.91
2022-12-25T11:22:27.332Z,95663.47
2022-12-25T11:24:54.204Z,95658.31
2022-12-25T11:27:30.080Z,95643.25
2022-12-25T11:30:03.373Z,95656.44
2022-12-25T11:32:46.553Z,95667.34
2022-12-25T11:35:16.247Z,95601.19
2022-12-25T11:37:49.234Z,95635.94
2022-12-25T11:40:22.411Z,95618.16
2022-12-25T11:43:07.984Z,95664.28
2022-12-25T11:45:38.959Z,95653.88
2022-12-25T11:48:19.985Z,95677.22
2022-12-25T11:50:57.499Z,95679.56
2022-12-25T11:53:42.680Z,95669.75
2022-12-25T11:56:16.231Z,95674.72
2022-12-25T11:58:50.111Z,95675.38
2022-12-25T12:01:30.375Z,95674.16
2022-12-25T12:03:59.855Z,95679.66
2022-12-25T12:06:35.671Z,95644.38
2022-12-25T12:09:22.529Z,95671.78
2022-12-25T12:12:22.741Z,95664.44
2022-12-25T12:14:55.274Z,95653.38
2022-12-25T12:17:21.883Z,95670.25
2022-12-25T12:19:48.731Z,95591.75
2022-12-25T12:22:23.489Z,95622.41
2022-12-25T12:24:59.599Z,95631.34
2022-12-25T12:27:42.177Z,95669.59
2022-12-25T12:30:23.383Z,95668.78
2022-12-25T12:32:53.994Z,95684.13
2022-12-25T12:35:34.580Z,95666.88
2022-12-25T12:38:28.091Z,95678.47
2022-12-25T12:41:05.248Z,95681.22
2022-12-25T12:43:39.752Z,95664.91
2022-12-25T12:46:26.079Z,95645.13
2022-12-25T12:49:22.484Z,95682.22
2022-12-25T12:51:50.294Z,95685.97
2022-12-25T12:54:23.311Z,95689.22
2022-12-25T12:57:05.300Z,95684.41
2022-12-25T12:59:47.359Z,95698.53
2022-12-25T13:02:41.538Z,95695.53
2022-12-25T13:05:35.826Z,95709.88
2022-12-25T13:08:14.910Z,95701.66
2022-12-25T13:10:47.051Z,95691.66
2022-12-25T13:13:28.222Z,95698.03
2022-12-25T13:15:56.079Z,95688.38
2022-12-25T13:18:23.768Z,95691.72
2022-12-25T13:21:01.743Z,95694.00
2022-12-25T13:23:37.755Z,95659.38
2022-12-25T13:26:11.730Z,95698.53
2022-12-25T13:28:38.875Z,95676.84
2022-12-25T13:31:18.636Z,95708.34
2022-12-25T13:33:49.359Z,95701.94
2022-12-25T13:36:17.151Z,95686.06
2022-12-25T13:38:49.341Z,95696.72
2022-12-25T13:41:38.569Z,95702.97
2022-12-25T13:44:40.152Z,95614.28
2022-12-25T13:47:21.977Z,95709.41
2022-12-25T13:49:49.898Z,95707.56
2022-12-25T13:52:21.588Z,95706.34
2022-12-25T13:55:12.045Z,95694.47
2022-12-25T13:57:46.296Z,95689.53
2022-12-25T14:00:20.569Z,95710.34
2022-12-25T14:02:48.123Z,95688.59
2022-12-25T14:05:41.353Z,95719.16
2022-12-25T14:08:15.957Z,95704.47
2022-12-25T14:10:46.060Z,95717.91
2022-12-25T14:13:15.525Z,95716.03
2022-12-25T14:15:45.270Z,95718.03
2022-12-25T14:18:16.911Z,95717.34
2022-12-25T14:21:03.859Z,95711.41
2022-12-25T14:23:44.273Z,95729.78
2022-12-25T14:26:20.107Z,95729.63
2022-12-25T14:29:17.735Z,95716.69
2022-12-25T14:31:46.920Z,95717.22
2022-12-25T14:34:21.318Z,95719.88
2022-12-25T14:36:49.085Z,95693.31
2022-12-25T14:39:36.781Z,95722.94
2022-12-25T14:42:22.018Z,95718.59
2022-12-25T14:45:04.307Z,95729.09
2022-12-25T14:47:32.359Z,95717.22
2022-12-25T14:50:00.012Z,95728.25
2022-12-25T14:52:43.492Z,95732.28
2022-12-25T14:55:21.237Z,95710.38
2022-12-25T14:57:53.095Z,95718.31
2022-12-25T15:00:38.090Z,95720.34
2022-12-25T15:03:08.263Z,95735.72
2022-12-25T15:05:39.945Z,95722.09
2022-12-25T15:08:10.449Z,95724.91
2022-12-25T15:13:27.168Z,95716.31
2022-12-25T15:16:01.855Z,95742.88
2022-12-25T15:18:36.136Z,95728.94
2022-12-25T15:21:03.078Z,95722.31
2022-12-25T15:23:29.931Z,95732.78
2022-12-25T15:25:57.072Z,95732.13
2022-12-25T15:28:23.758Z,95712.75
2022-12-25T15:30:50.962Z,95737.53
2022-12-25T15:33:19.137Z,95746.91
2022-12-25T15:35:46.341Z,95745.34
2022-12-25T15:38:13.229Z,95732.94
2022-12-25T15:40:40.773Z,95744.13
2022-12-25T15:43:14.323Z,95726.13
2022-12-25T15:45:47.579Z,95658.06
2022-12-25T15:48:14.464Z,95731.44
2022-12-25T15:50:41.431Z,95744.25
2022-12-25T15:53:08.287Z,95738.25
2022-12-25T15:55:35.076Z,95756.44
2022-12-25T15:58:01.792Z,95770.66
2022-12-25T16:00:28.584Z,95760.56
2022-12-25T16:02:55.567Z,95743.03
2022-12-25T16:05:22.375Z,95731.66
2022-12-25T16:07:49.867Z,95768.06
2022-12-25T16:10:18.892Z,95769.09
2022-12-25T16:12:46.483Z,95770.94
2022-12-25T16:15:15.211Z,95752.63
2022-12-25T16:17:42.868Z,95775.53
2022-12-25T16:20:10.114Z,95758.97
2022-12-25T16:22:40.268Z,95759.75
2022-12-25T16:25:14.794Z,95709.22
2022-12-25T16:27:42.097Z,95715.47
2022-12-25T16:30:10.673Z,95770.09
2022-12-25T16:32:37.465Z,95754.81
2022-12-25T16:35:04.978Z,95760.69
2022-12-25T16:37:31.616Z,95793.84
2022-12-25T16:39:58.248Z,95773.41
2022-12-25T16:42:24.890Z,95794.44
2022-12-25T16:44:51.751Z,95782.13
2022-12-25T16:47:18.875Z,95770.94
2022-12-25T16:49:45.951Z,95795.53
2022-12-25T16:52:13.155Z,95804.63
2022-12-25T16:54:39.879Z,95793.78
2022-12-25T16:57:06.926Z,95792.25
2022-12-25T16:59:34.642Z,95793.88
2022-12-25T17:02:01.821Z,95783.25
2022-12-25T17:04:28.784Z,95807.44
2022-12-25T17:06:55.960Z,95824.69
2022-12-25T17:09:23.038Z,95811.47
2022-12-25T17:11:49.833Z,95827.06
2022-12-25T17:14:16.695Z,95824.81
2022-12-25T17:16:43.895Z,95832.53
2022-12-25T17:19:21.696Z,95832.84
2022-12-25T17:21:48.566Z,95829.06
2022-12-25T17:24:16.247Z,95839.22
2022-12-25T17:26:44.572Z,95827.81
2022-12-25T17:29:14.706Z,95839.75
2022-12-25T17:31:45.453Z,95828.66
2022-12-25T17:34:12.424Z,95833.53
2022-12-25T17:36:39.333Z,95849.81
2022-12-25T17:39:06.519Z,95828.69
2022-12-25T17:41:33.763Z,95840.16
2022-12-25T17:44:00.693Z,95849.06
2022-12-25T17:46:29.999Z,95855.09
2022-12-25T17:48:59.043Z,95854.63
2022-12-25T17:51:27.641Z,95839.91
2022-12-25T17:53:56.941Z,95864.78
2022-12-25T17:56:24.400Z,95849.81
2022-12-25T17:58:52.995Z,95845.72
2022-12-25T18:01:20.384Z,95796.94
2022-12-25T18:03:47.841Z,95842.88
2022-12-25T18:06:18.163Z,95858.72
2022-12-25T18:08:48.272Z,95809.88
2022-12-25T18:11:20.925Z,95840.53
2022-12-25T18:13:49.958Z,95855.88
2022-12-25T18:16:18.013Z,95845.91
2022-12-25T18:18:51.547Z,95863.91
2022-12-25T18:21:19.569Z,95831.25
2022-12-25T18:23:46.601Z,95827.44
2022-12-25T18:26:14.212Z,95858.59
2022-12-25T18:28:43.004Z,95853.56
2022-12-25T18:31:11.046Z,95861.72
2022-12-25T18:33:37.947Z,95850.25
2022-12-25T18:36:05.659Z,95847.34
2022-12-25T18:38:32.416Z,95829.44
2022-12-25T18:40:59.459Z,95856.94
2022-12-25T18:43:52.947Z,95863.00
2022-12-25T18:46:13.523Z,95859.31
2022-12-25T18:48:40.319Z,95855.03
2022-12-25T18:51:11.193Z,95840.00
2022-12-25T18:53:38.759Z,95851.53
2022-12-25T18:56:15.280Z,95814.13
2022-12-25T18:58:42.780Z,95838.34
2022-12-25T19:01:20.758Z,95838.13
2022-12-25T19:03:49.309Z,95849.25
2022-12-25T19:06:25.028Z,95869.16
2022-12-25T19:08:52.393Z,95870.53
2022-12-25T19:11:19.884Z,95866.22
2022-12-25T19:13:46.888Z,95882.72
2022-12-25T19:16:14.623Z,95872.34
2022-12-25T19:18:42.392Z,95860.59
2022-12-25T19:21:10.194Z,95847.03
2022-12-25T19:23:38.241Z,95874.31
2022-12-25T19:26:06.218Z,95869.84
2022-12-25T19:28:33.035Z,95875.34
2022-12-25T19:31:00.644Z,95873.72
2022-12-25T19:33:27.720Z,95881.59
2022-12-25T19:35:58.893Z,95857.56
2022-12-25T19:38:25.471Z,95876.88
2022-12-25T19:41:01.429Z,95874.84
2022-12-25T19:43:34.630Z,95894.56
2022-12-25T19:46:01.977Z,95872.78
2022-12-25T19:48:30.229Z,95885.44
2022-12-25T19:50:56.994Z,95871.66
2022-12-25T19:53:24.496Z,95876.41
2022-12-25T19:55:55.603Z,95881.72
2022-12-25T19:58:23.709Z,95819.66
2022-12-25T20:00:59.019Z,95855.94
2022-12-25T20:03:26.174Z,95871.13
2022-12-25T20:05:52.970Z,95849.69
2022-12-25T20:08:20.049Z,95863.59
2022-12-25T20:10:47.011Z,95841.81
2022-12-25T20:13:13.793Z,95853.22
2022-12-25T20:15:40.653Z,95856.28
2022-12-25T20:18:07.568Z,95851.84
2022-12-25T20:20:34.224Z,95856.75
2022-12-25T20:23:01.066Z,95864.38
2022-12-25T20:25:27.821Z,95847.22
2022-12-25T20:27:54.474Z,95867.84
2022-12-25T20:30:21.386Z,95876.25
2022-12-25T20:32:50.605Z,95862.94
2022-12-25T20:35:17.891Z,95882.00
2022-12-25T20:37:45.067Z,95849.44
2022-12-25T20:40:12.388Z,95862.09
2022-12-25T20:42:39.106Z,95873.44
2022-12-25T20:45:07.552Z,95881.59
2022-12-25T20:47:34.877Z,95874.41
2022-12-25T20:50:01.590Z,95863.00
2022-12-25T20:52:28.390Z,95879.19
2022-12-25T20:54:55.070Z,95847.03
2022-12-25T20:57:21.871Z,95888.59
2022-12-25T20:59:48.507Z,95888.63
2022-12-25T21:02:34.481Z,95903.69
2022-12-25T21:05:02.747Z,95874.13
2022-12-25T21:07:29.449Z,95886.47
2022-12-25T21:09:56.051Z,95894.19
2022-12-25T21:12:22.910Z,95901.50
2022-12-25T21:14:49.541Z,95903.06
2022-12-25T21:17:16.455Z,95904.22
2022-12-25T21:19:43.267Z,95890.03
2022-12-25T21:22:09.954Z,95888.88
2022-12-25T21:24:36.788Z,95891.16
2022-12-25T21:27:03.777Z,95867.72
2022-12-25T21:29:31.059Z,95860.88
2022-12-25T21:32:26.816Z,95901.66
2022-12-25T21:34:53.839Z,95899.75
2022-12-25T21:37:20.515Z,95885.16
2022-12-25T21:39:50.492Z,95907.44
2022-12-25T21:42:17.299Z,95905.59
2022-12-25T21:44:43.985Z,95905.94
2022-12-25T21:47:10.627Z,95902.50
2022-12-25T21:49:55.619Z,95900.97
2022-12-25T21:52:22.317Z,95898.31
2022-12-25T21:54:52.907Z,95900.22
2022-12-25T21:57:19.983Z,95879.09
2022-12-25T21:59:47.813Z,95866.06
2022-12-25T22:02:14.539Z,95876.41
2022-12-25T22:04:41.397Z,95869.06
2022-12-25T22:07:18.838Z,95894.81
2022-12-25T22:09:51.133Z,95883.28
2022-12-25T22:12:37.391Z,95889.81
2022-12-25T22:15:07.499Z,95884.50
2022-12-25T22:17:55.404Z,95885.69
2022-12-25T22:20:26.574Z,95878.34
2022-12-25T22:22:53.930Z,95857.59
2022-12-25T22:25:20.977Z,95865.28
2022-12-25T22:27:48.434Z,95874.84
2022-12-25T22:30:26.935Z,95890.19
2022-12-25T22:32:54.056Z,95889.81
2022-12-25T22:35:20.983Z,95869.44
2022-12-25T22:37:48.364Z,95876.38
2022-12-25T22:40:17.294Z,95895.19
2022-12-25T22:42:44.001Z,95879.06
2022-12-25T22:45:11.771Z,95897.91
2022-12-25T22:47:38.875Z,95891.41
2022-12-25T22:50:06.327Z,95899.09
2022-12-25T22:52:32.991Z,95891.41
2022-12-25T22:54:59.823Z,95851.50
2022-12-25T22:57:26.725Z,95897.19
2022-12-25T22:59:53.696Z,95885.69
2022-12-25T23:02:21.299Z,95894.94
2022-12-25T23:04:48.406Z,95868.44
2022-12-25T23:07:15.716Z,95897.66
2022-12-25T23:09:44.167Z,95890.34
2022-12-25T23:12:31.728Z,95905.72
2022-12-25T23:14:58.774Z,95907.66
2022-12-25T23:17:44.333Z,95896.50
2022-12-25T23:20:32.511Z,95856.94
2022-12-25T23:23:17.856Z,95886.16
2022-12-25T23:26:02.982Z,95867.34
2022-12-25T23:28:48.379Z,95866.94
2022-12-25T23:31:15.461Z,95858.50
2022-12-25T23:33:42.344Z,95886.91
2022-12-25T23:36:09.479Z,95902.63
2022-12-25T23:38:36.080Z,95904.16
2022-12-25T23:41:02.938Z,95908.41
2022-12-25T23:43:29.965Z,95916.88
2022-12-25T23:45:56.706Z,95916.91
2022-12-25T23:48:23.336Z,95915.38
2022-12-25T23:50:50.000Z,95915.34
2022-12-25T23:53:16.866Z,95903.47
2022-12-25T23:55:45.043Z,95923.84
2022-12-25T23:58:14.240Z,95912.28
